sensor_id;sensor_type;location;lat;lon;timestamp;P1;durP1;ratioP1;P2;durP2;ratioP2
47922;SDS011;33688;44.354;9.228;2023-04-10T00:02:17;0.82;;;0.82;;
47922;SDS011;33688;44.354;9.228;2023-04-10T00:04:43;0.50;;;0.50;;
47922;SDS011;33688;44.354;9.228;2023-04-10T00:07:08;0.70;;;0.70;;
47922;SDS011;33688;44.354;9.228;2023-04-10T00:09:34;0.50;;;0.50;;
47922;SDS011;33688;44.354;9.228;2023-04-10T00:12:00;0.57;;;0.57;;
47922;SDS011;33688;44.354;9.228;2023-04-10T00:14:26;1.20;;;1.10;;
47922;SDS011;33688;44.354;9.228;2023-04-10T00:16:51;2.53;;;0.80;;
47922;SDS011;33688;44.354;9.228;2023-04-10T00:19:17;0.70;;;0.70;;
47922;SDS011;33688;44.354;9.228;2023-04-10T00:21:43;0.65;;;0.65;;
47922;SDS011;33688;44.354;9.228;2023-04-10T00:24:09;0.60;;;0.60;;
47922;SDS011;33688;44.354;9.228;2023-04-10T00:26:35;1.58;;;0.80;;
47922;SDS011;33688;44.354;9.228;2023-04-10T00:29:01;0.52;;;0.50;;
47922;SDS011;33688;44.354;9.228;2023-04-10T00:31:28;0.60;;;0.60;;
47922;SDS011;33688;44.354;9.228;2023-04-10T00:33:54;0.60;;;0.60;;
47922;SDS011;33688;44.354;9.228;2023-04-10T00:36:20;1.25;;;0.82;;
47922;SDS011;33688;44.354;9.228;2023-04-10T00:38:47;1.30;;;0.88;;
47922;SDS011;33688;44.354;9.228;2023-04-10T00:41:14;0.90;;;0.90;;
47922;SDS011;33688;44.354;9.228;2023-04-10T00:43:40;0.75;;;0.75;;
47922;SDS011;33688;44.354;9.228;2023-04-10T00:46:05;1.13;;;1.00;;
47922;SDS011;33688;44.354;9.228;2023-04-10T00:48:32;1.02;;;0.90;;
47922;SDS011;33688;44.354;9.228;2023-04-10T00:50:58;0.80;;;0.80;;
47922;SDS011;33688;44.354;9.228;2023-04-10T00:53:25;0.90;;;0.85;;
47922;SDS011;33688;44.354;9.228;2023-04-10T00:55:51;0.77;;;0.60;;
47922;SDS011;33688;44.354;9.228;2023-04-10T00:58:17;0.82;;;0.77;;
47922;SDS011;33688;44.354;9.228;2023-04-10T01:00:45;0.98;;;0.90;;
47922;SDS011;33688;44.354;9.228;2023-04-10T01:03:11;0.98;;;0.70;;
47922;SDS011;33688;44.354;9.228;2023-04-10T01:05:40;1.08;;;0.80;;
47922;SDS011;33688;44.354;9.228;2023-04-10T01:08:27;0.93;;;0.60;;
47922;SDS011;33688;44.354;9.228;2023-04-10T01:14:11;0.75;;;0.70;;
47922;SDS011;33688;44.354;9.228;2023-04-10T01:17:03;0.60;;;0.60;;
47922;SDS011;33688;44.354;9.228;2023-04-10T01:22:25;0.63;;;0.50;;
47922;SDS011;33688;44.354;9.228;2023-04-10T01:25:01;1.40;;;0.70;;
47922;SDS011;33688;44.354;9.228;2023-04-10T01:27:44;0.50;;;0.50;;
47922;SDS011;33688;44.354;9.228;2023-04-10T01:30:17;1.00;;;0.90;;
47922;SDS011;33688;44.354;9.228;2023-04-10T01:32:44;0.70;;;0.70;;
47922;SDS011;33688;44.354;9.228;2023-04-10T01:35:10;1.65;;;0.68;;
47922;SDS011;33688;44.354;9.228;2023-04-10T01:37:37;0.60;;;0.60;;
47922;SDS011;33688;44.354;9.228;2023-04-10T01:40:07;0.80;;;0.80;;
47922;SDS011;33688;44.354;9.228;2023-04-10T01:42:37;0.60;;;0.60;;
47922;SDS011;33688;44.354;9.228;2023-04-10T01:45:05;0.60;;;0.60;;
47922;SDS011;33688;44.354;9.228;2023-04-10T01:47:33;0.47;;;0.47;;
47922;SDS011;33688;44.354;9.228;2023-04-10T01:49:59;0.93;;;0.90;;
47922;SDS011;33688;44.354;9.228;2023-04-10T01:52:26;0.63;;;0.60;;
47922;SDS011;33688;44.354;9.228;2023-04-10T01:55:04;1.73;;;0.70;;
47922;SDS011;33688;44.354;9.228;2023-04-10T01:57:37;0.50;;;0.50;;
47922;SDS011;33688;44.354;9.228;2023-04-10T02:00:03;0.55;;;0.40;;
47922;SDS011;33688;44.354;9.228;2023-04-10T02:02:40;0.80;;;0.65;;
47922;SDS011;33688;44.354;9.228;2023-04-10T02:05:07;1.20;;;0.60;;
47922;SDS011;33688;44.354;9.228;2023-04-10T02:07:49;0.40;;;0.40;;
47922;SDS011;33688;44.354;9.228;2023-04-10T02:10:23;0.50;;;0.50;;
47922;SDS011;33688;44.354;9.228;2023-04-10T02:13:04;0.88;;;0.80;;
47922;SDS011;33688;44.354;9.228;2023-04-10T02:15:31;0.60;;;0.60;;
47922;SDS011;33688;44.354;9.228;2023-04-10T02:18:01;0.57;;;0.57;;
47922;SDS011;33688;44.354;9.228;2023-04-10T02:20:29;0.63;;;0.63;;
47922;SDS011;33688;44.354;9.228;2023-04-10T02:22:56;0.50;;;0.50;;
47922;SDS011;33688;44.354;9.228;2023-04-10T02:27:57;0.60;;;0.60;;
47922;SDS011;33688;44.354;9.228;2023-04-10T02:30:23;0.50;;;0.50;;
47922;SDS011;33688;44.354;9.228;2023-04-10T02:32:49;0.85;;;0.70;;
47922;SDS011;33688;44.354;9.228;2023-04-10T02:35:16;1.10;;;1.00;;
47922;SDS011;33688;44.354;9.228;2023-04-10T02:37:42;0.60;;;0.60;;
47922;SDS011;33688;44.354;9.228;2023-04-10T02:40:08;0.82;;;0.60;;
47922;SDS011;33688;44.354;9.228;2023-04-10T02:42:54;0.70;;;0.60;;
47922;SDS011;33688;44.354;9.228;2023-04-10T02:45:20;0.93;;;0.70;;
47922;SDS011;33688;44.354;9.228;2023-04-10T02:47:46;0.73;;;0.60;;
47922;SDS011;33688;44.354;9.228;2023-04-10T02:50:12;0.63;;;0.63;;
47922;SDS011;33688;44.354;9.228;2023-04-10T02:52:43;1.17;;;0.70;;
47922;SDS011;33688;44.354;9.228;2023-04-10T02:55:10;0.50;;;0.50;;
47922;SDS011;33688;44.354;9.228;2023-04-10T02:57:37;0.60;;;0.60;;
47922;SDS011;33688;44.354;9.228;2023-04-10T03:00:03;0.73;;;0.73;;
47922;SDS011;33688;44.354;9.228;2023-04-10T03:02:47;0.57;;;0.52;;
47922;SDS011;33688;44.354;9.228;2023-04-10T03:05:16;0.52;;;0.52;;
47922;SDS011;33688;44.354;9.228;2023-04-10T03:07:43;0.65;;;0.65;;
47922;SDS011;33688;44.354;9.228;2023-04-10T03:10:09;0.75;;;0.40;;
47922;SDS011;33688;44.354;9.228;2023-04-10T03:12:36;0.50;;;0.50;;
47922;SDS011;33688;44.354;9.228;2023-04-10T03:15:01;1.48;;;0.40;;
47922;SDS011;33688;44.354;9.228;2023-04-10T03:17:27;0.70;;;0.70;;
47922;SDS011;33688;44.354;9.228;2023-04-10T03:19:54;0.68;;;0.68;;
47922;SDS011;33688;44.354;9.228;2023-04-10T03:22:22;0.60;;;0.55;;
47922;SDS011;33688;44.354;9.228;2023-04-10T03:24:47;0.70;;;0.63;;
47922;SDS011;33688;44.354;9.228;2023-04-10T03:27:13;0.60;;;0.57;;
47922;SDS011;33688;44.354;9.228;2023-04-10T03:29:38;0.70;;;0.60;;
47922;SDS011;33688;44.354;9.228;2023-04-10T03:32:04;0.65;;;0.65;;
47922;SDS011;33688;44.354;9.228;2023-04-10T03:34:31;0.60;;;0.60;;
47922;SDS011;33688;44.354;9.228;2023-04-10T03:36:57;0.50;;;0.50;;
47922;SDS011;33688;44.354;9.228;2023-04-10T03:39:23;0.90;;;0.82;;
47922;SDS011;33688;44.354;9.228;2023-04-10T03:41:48;0.40;;;0.40;;
47922;SDS011;33688;44.354;9.228;2023-04-10T03:44:14;0.68;;;0.68;;
47922;SDS011;33688;44.354;9.228;2023-04-10T03:46:40;1.52;;;0.60;;
47922;SDS011;33688;44.354;9.228;2023-04-10T03:49:07;0.47;;;0.47;;
47922;SDS011;33688;44.354;9.228;2023-04-10T03:51:33;0.65;;;0.65;;
47922;SDS011;33688;44.354;9.228;2023-04-10T03:53:58;1.02;;;0.77;;
47922;SDS011;33688;44.354;9.228;2023-04-10T03:56:24;0.65;;;0.65;;
47922;SDS011;33688;44.354;9.228;2023-04-10T03:58:49;0.70;;;0.70;;
47922;SDS011;33688;44.354;9.228;2023-04-10T04:01:15;1.02;;;0.85;;
47922;SDS011;33688;44.354;9.228;2023-04-10T04:04:12;0.50;;;0.50;;
47922;SDS011;33688;44.354;9.228;2023-04-10T04:07:07;0.77;;;0.57;;
47922;SDS011;33688;44.354;9.228;2023-04-10T04:10:05;0.60;;;0.60;;
47922;SDS011;33688;44.354;9.228;2023-04-10T04:12:59;0.68;;;0.57;;
47922;SDS011;33688;44.354;9.228;2023-04-10T04:15:50;1.05;;;0.60;;
47922;SDS011;33688;44.354;9.228;2023-04-10T04:18:37;1.00;;;0.85;;
47922;SDS011;33688;44.354;9.228;2023-04-10T04:21:35;0.60;;;0.60;;
47922;SDS011;33688;44.354;9.228;2023-04-10T04:24:10;0.70;;;0.70;;
47922;SDS011;33688;44.354;9.228;2023-04-10T04:26:52;0.90;;;0.67;;
47922;SDS011;33688;44.354;9.228;2023-04-10T04:29:53;0.70;;;0.70;;
47922;SDS011;33688;44.354;9.228;2023-04-10T04:32:25;0.40;;;0.40;;
47922;SDS011;33688;44.354;9.228;2023-04-10T04:35:20;0.30;;;0.30;;
47922;SDS011;33688;44.354;9.228;2023-04-10T04:38:09;0.60;;;0.60;;
47922;SDS011;33688;44.354;9.228;2023-04-10T04:40:34;0.57;;;0.50;;
47922;SDS011;33688;44.354;9.228;2023-04-10T04:43:14;0.70;;;0.70;;
47922;SDS011;33688;44.354;9.228;2023-04-10T04:45:55;0.77;;;0.77;;
47922;SDS011;33688;44.354;9.228;2023-04-10T04:48:49;0.65;;;0.50;;
47922;SDS011;33688;44.354;9.228;2023-04-10T04:51:38;0.60;;;0.60;;
47922;SDS011;33688;44.354;9.228;2023-04-10T04:54:23;0.43;;;0.43;;
47922;SDS011;33688;44.354;9.228;2023-04-10T04:57:10;0.60;;;0.60;;
47922;SDS011;33688;44.354;9.228;2023-04-10T04:59:56;0.57;;;0.57;;
47922;SDS011;33688;44.354;9.228;2023-04-10T05:02:57;0.60;;;0.60;;
47922;SDS011;33688;44.354;9.228;2023-04-10T05:05:55;0.47;;;0.47;;
47922;SDS011;33688;44.354;9.228;2023-04-10T05:08:43;0.60;;;0.60;;
47922;SDS011;33688;44.354;9.228;2023-04-10T05:11:22;0.50;;;0.50;;
47922;SDS011;33688;44.354;9.228;2023-04-10T05:13:56;0.50;;;0.50;;
47922;SDS011;33688;44.354;9.228;2023-04-10T05:16:51;0.55;;;0.55;;
47922;SDS011;33688;44.354;9.228;2023-04-10T05:19:36;0.50;;;0.50;;
47922;SDS011;33688;44.354;9.228;2023-04-10T05:22:28;2.67;;;1.13;;
47922;SDS011;33688;44.354;9.228;2023-04-10T05:25:13;0.65;;;0.57;;
47922;SDS011;33688;44.354;9.228;2023-04-10T05:27:59;0.95;;;0.80;;
47922;SDS011;33688;44.354;9.228;2023-04-10T05:30:45;0.60;;;0.52;;
47922;SDS011;33688;44.354;9.228;2023-04-10T05:33:28;0.68;;;0.40;;
47922;SDS011;33688;44.354;9.228;2023-04-10T05:36:12;0.60;;;0.60;;
47922;SDS011;33688;44.354;9.228;2023-04-10T05:38:56;0.60;;;0.60;;
47922;SDS011;33688;44.354;9.228;2023-04-10T05:41:45;0.85;;;0.73;;
47922;SDS011;33688;44.354;9.228;2023-04-10T05:44:42;0.88;;;0.70;;
47922;SDS011;33688;44.354;9.228;2023-04-10T05:47:35;0.75;;;0.75;;
47922;SDS011;33688;44.354;9.228;2023-04-10T05:50:33;0.60;;;0.60;;
47922;SDS011;33688;44.354;9.228;2023-04-10T05:53:34;0.50;;;0.50;;
47922;SDS011;33688;44.354;9.228;2023-04-10T05:56:29;0.50;;;0.50;;
47922;SDS011;33688;44.354;9.228;2023-04-10T05:59:05;0.60;;;0.57;;
47922;SDS011;33688;44.354;9.228;2023-04-10T06:01:53;0.77;;;0.68;;
47922;SDS011;33688;44.354;9.228;2023-04-10T06:04:20;0.65;;;0.65;;
47922;SDS011;33688;44.354;9.228;2023-04-10T06:06:48;0.65;;;0.65;;
47922;SDS011;33688;44.354;9.228;2023-04-10T06:09:14;0.68;;;0.68;;
47922;SDS011;33688;44.354;9.228;2023-04-10T06:11:40;0.57;;;0.57;;
47922;SDS011;33688;44.354;9.228;2023-04-10T06:14:07;0.63;;;0.63;;
47922;SDS011;33688;44.354;9.228;2023-04-10T06:16:40;0.60;;;0.60;;
47922;SDS011;33688;44.354;9.228;2023-04-10T06:19:07;0.50;;;0.50;;
47922;SDS011;33688;44.354;9.228;2023-04-10T06:21:34;0.55;;;0.55;;
47922;SDS011;33688;44.354;9.228;2023-04-10T06:24:00;1.10;;;0.68;;
47922;SDS011;33688;44.354;9.228;2023-04-10T06:26:25;0.70;;;0.70;;
47922;SDS011;33688;44.354;9.228;2023-04-10T06:28:51;0.77;;;0.73;;
47922;SDS011;33688;44.354;9.228;2023-04-10T06:31:18;0.50;;;0.50;;
47922;SDS011;33688;44.354;9.228;2023-04-10T06:33:46;0.73;;;0.60;;
47922;SDS011;33688;44.354;9.228;2023-04-10T06:36:13;0.65;;;0.52;;
47922;SDS011;33688;44.354;9.228;2023-04-10T06:38:45;0.70;;;0.70;;
47922;SDS011;33688;44.354;9.228;2023-04-10T06:41:11;0.68;;;0.60;;
47922;SDS011;33688;44.354;9.228;2023-04-10T06:43:37;0.73;;;0.70;;
47922;SDS011;33688;44.354;9.228;2023-04-10T06:46:04;0.85;;;0.70;;
47922;SDS011;33688;44.354;9.228;2023-04-10T06:48:32;0.82;;;0.82;;
47922;SDS011;33688;44.354;9.228;2023-04-10T06:50:57;1.08;;;0.90;;
47922;SDS011;33688;44.354;9.228;2023-04-10T06:53:26;0.98;;;0.70;;
47922;SDS011;33688;44.354;9.228;2023-04-10T06:55:51;1.42;;;0.88;;
47922;SDS011;33688;44.354;9.228;2023-04-10T06:58:17;0.88;;;0.80;;
47922;SDS011;33688;44.354;9.228;2023-04-10T07:00:43;1.00;;;0.95;;
47922;SDS011;33688;44.354;9.228;2023-04-10T07:03:09;0.80;;;0.80;;
47922;SDS011;33688;44.354;9.228;2023-04-10T07:05:34;1.27;;;0.90;;
47922;SDS011;33688;44.354;9.228;2023-04-10T07:08:00;1.00;;;0.82;;
47922;SDS011;33688;44.354;9.228;2023-04-10T07:10:26;1.65;;;0.82;;
47922;SDS011;33688;44.354;9.228;2023-04-10T07:12:51;0.93;;;0.80;;
47922;SDS011;33688;44.354;9.228;2023-04-10T07:15:17;1.10;;;0.93;;
47922;SDS011;33688;44.354;9.228;2023-04-10T07:17:42;0.70;;;0.70;;
47922;SDS011;33688;44.354;9.228;2023-04-10T07:20:09;0.73;;;0.70;;
47922;SDS011;33688;44.354;9.228;2023-04-10T07:22:35;0.80;;;0.80;;
47922;SDS011;33688;44.354;9.228;2023-04-10T07:25:01;1.27;;;1.17;;
47922;SDS011;33688;44.354;9.228;2023-04-10T07:27:26;0.70;;;0.70;;
47922;SDS011;33688;44.354;9.228;2023-04-10T07:29:53;1.80;;;1.05;;
47922;SDS011;33688;44.354;9.228;2023-04-10T07:32:19;0.73;;;0.73;;
47922;SDS011;33688;44.354;9.228;2023-04-10T07:34:46;0.60;;;0.60;;
47922;SDS011;33688;44.354;9.228;2023-04-10T07:37:12;0.93;;;0.90;;
47922;SDS011;33688;44.354;9.228;2023-04-10T07:39:38;2.08;;;0.80;;
47922;SDS011;33688;44.354;9.228;2023-04-10T07:42:03;1.08;;;0.98;;
47922;SDS011;33688;44.354;9.228;2023-04-10T07:44:30;1.13;;;1.02;;
47922;SDS011;33688;44.354;9.228;2023-04-10T07:46:56;0.73;;;0.73;;
47922;SDS011;33688;44.354;9.228;2023-04-10T07:49:21;1.65;;;1.02;;
47922;SDS011;33688;44.354;9.228;2023-04-10T07:51:47;1.50;;;0.70;;
47922;SDS011;33688;44.354;9.228;2023-04-10T07:54:12;0.88;;;0.88;;
47922;SDS011;33688;44.354;9.228;2023-04-10T07:56:38;0.90;;;0.90;;
47922;SDS011;33688;44.354;9.228;2023-04-10T07:59:04;0.82;;;0.82;;
47922;SDS011;33688;44.354;9.228;2023-04-10T08:01:30;1.08;;;0.90;;
47922;SDS011;33688;44.354;9.228;2023-04-10T08:03:55;0.90;;;0.77;;
47922;SDS011;33688;44.354;9.228;2023-04-10T08:06:21;1.00;;;0.85;;
47922;SDS011;33688;44.354;9.228;2023-04-10T08:08:48;0.73;;;0.73;;
47922;SDS011;33688;44.354;9.228;2023-04-10T08:11:25;1.00;;;0.90;;
47922;SDS011;33688;44.354;9.228;2023-04-10T08:13:55;0.80;;;0.80;;
47922;SDS011;33688;44.354;9.228;2023-04-10T08:16:26;1.40;;;0.80;;
47922;SDS011;33688;44.354;9.228;2023-04-10T08:18:53;1.55;;;0.90;;
47922;SDS011;33688;44.354;9.228;2023-04-10T08:21:23;1.13;;;0.73;;
47922;SDS011;33688;44.354;9.228;2023-04-10T08:23:50;1.02;;;0.93;;
47922;SDS011;33688;44.354;9.228;2023-04-10T08:26:16;0.90;;;0.80;;
47922;SDS011;33688;44.354;9.228;2023-04-10T08:28:45;0.70;;;0.57;;
47922;SDS011;33688;44.354;9.228;2023-04-10T08:31:15;1.13;;;0.68;;
47922;SDS011;33688;44.354;9.228;2023-04-10T08:33:41;0.70;;;0.70;;
47922;SDS011;33688;44.354;9.228;2023-04-10T08:36:07;1.00;;;0.82;;
47922;SDS011;33688;44.354;9.228;2023-04-10T08:38:33;0.82;;;0.65;;
47922;SDS011;33688;44.354;9.228;2023-04-10T08:40:59;1.13;;;0.82;;
47922;SDS011;33688;44.354;9.228;2023-04-10T08:43:25;1.38;;;0.80;;
47922;SDS011;33688;44.354;9.228;2023-04-10T08:45:51;0.80;;;0.80;;
47922;SDS011;33688;44.354;9.228;2023-04-10T08:48:18;0.90;;;0.80;;
47922;SDS011;33688;44.354;9.228;2023-04-10T08:50:45;2.10;;;0.80;;
47922;SDS011;33688;44.354;9.228;2023-04-10T08:53:12;1.80;;;0.70;;
47922;SDS011;33688;44.354;9.228;2023-04-10T08:55:41;1.90;;;1.02;;
47922;SDS011;33688;44.354;9.228;2023-04-10T08:58:08;1.05;;;0.77;;
47922;SDS011;33688;44.354;9.228;2023-04-10T09:00:35;0.80;;;0.70;;
47922;SDS011;33688;44.354;9.228;2023-04-10T09:03:08;0.85;;;0.75;;
47922;SDS011;33688;44.354;9.228;2023-04-10T09:05:36;1.52;;;0.80;;
47922;SDS011;33688;44.354;9.228;2023-04-10T09:08:08;2.53;;;1.00;;
47922;SDS011;33688;44.354;9.228;2023-04-10T09:10:35;1.25;;;0.80;;
47922;SDS011;33688;44.354;9.228;2023-04-10T09:13:00;1.27;;;0.82;;
47922;SDS011;33688;44.354;9.228;2023-04-10T09:15:27;1.08;;;0.73;;
47922;SDS011;33688;44.354;9.228;2023-04-10T09:17:53;1.13;;;0.93;;
47922;SDS011;33688;44.354;9.228;2023-04-10T09:20:27;1.65;;;0.90;;
47922;SDS011;33688;44.354;9.228;2023-04-10T09:22:55;1.67;;;1.17;;
47922;SDS011;33688;44.354;9.228;2023-04-10T09:25:42;1.35;;;0.90;;
47922;SDS011;33688;44.354;9.228;2023-04-10T09:28:08;1.45;;;0.90;;
47922;SDS011;33688;44.354;9.228;2023-04-10T09:30:37;1.95;;;0.90;;
47922;SDS011;33688;44.354;9.228;2023-04-10T09:35:48;1.15;;;1.00;;
47922;SDS011;33688;44.354;9.228;2023-04-10T09:38:21;0.93;;;0.80;;
47922;SDS011;33688;44.354;9.228;2023-04-10T09:40:47;1.58;;;1.00;;
47922;SDS011;33688;44.354;9.228;2023-04-10T09:43:23;2.83;;;1.17;;
47922;SDS011;33688;44.354;9.228;2023-04-10T09:45:53;0.98;;;0.90;;
47922;SDS011;33688;44.354;9.228;2023-04-10T09:48:20;4.88;;;0.90;;
47922;SDS011;33688;44.354;9.228;2023-04-10T09:50:47;2.60;;;1.02;;
47922;SDS011;33688;44.354;9.228;2023-04-10T09:53:14;1.17;;;1.05;;
47922;SDS011;33688;44.354;9.228;2023-04-10T09:55:41;3.83;;;1.38;;
47922;SDS011;33688;44.354;9.228;2023-04-10T09:58:08;1.85;;;1.00;;
47922;SDS011;33688;44.354;9.228;2023-04-10T10:03:04;4.35;;;1.42;;
47922;SDS011;33688;44.354;9.228;2023-04-10T10:05:36;2.72;;;1.48;;
47922;SDS011;33688;44.354;9.228;2023-04-10T10:08:02;1.35;;;1.00;;
47922;SDS011;33688;44.354;9.228;2023-04-10T10:10:29;1.15;;;1.02;;
47922;SDS011;33688;44.354;9.228;2023-04-10T10:12:55;1.30;;;1.10;;
47922;SDS011;33688;44.354;9.228;2023-04-10T10:20:27;1.88;;;1.00;;
47922;SDS011;33688;44.354;9.228;2023-04-10T10:22:53;3.25;;;0.95;;
47922;SDS011;33688;44.354;9.228;2023-04-10T10:25:20;7.47;;;1.10;;
47922;SDS011;33688;44.354;9.228;2023-04-10T10:27:46;2.45;;;1.27;;
47922;SDS011;33688;44.354;9.228;2023-04-10T10:30:14;7.97;;;1.42;;
47922;SDS011;33688;44.354;9.228;2023-04-10T10:32:41;2.17;;;1.20;;
47922;SDS011;33688;44.354;9.228;2023-04-10T10:35:08;1.40;;;1.08;;
47922;SDS011;33688;44.354;9.228;2023-04-10T10:37:34;1.38;;;0.88;;
47922;SDS011;33688;44.354;9.228;2023-04-10T10:45:05;1.63;;;1.17;;
47922;SDS011;33688;44.354;9.228;2023-04-10T10:47:41;1.38;;;1.10;;
47922;SDS011;33688;44.354;9.228;2023-04-10T10:50:09;1.23;;;0.93;;
47922;SDS011;33688;44.354;9.228;2023-04-10T10:58:06;2.17;;;1.00;;
47922;SDS011;33688;44.354;9.228;2023-04-10T11:08:17;1.23;;;1.10;;
47922;SDS011;33688;44.354;9.228;2023-04-10T11:13:34;1.70;;;1.10;;
47922;SDS011;33688;44.354;9.228;2023-04-10T11:16:02;1.50;;;0.90;;
47922;SDS011;33688;44.354;9.228;2023-04-10T11:19:02;1.85;;;1.08;;
47922;SDS011;33688;44.354;9.228;2023-04-10T11:21:23;1.48;;;1.00;;
47922;SDS011;33688;44.354;9.228;2023-04-10T11:28:58;1.88;;;1.15;;
47922;SDS011;33688;44.354;9.228;2023-04-10T11:31:24;1.92;;;1.23;;
47922;SDS011;33688;44.354;9.228;2023-04-10T11:33:59;1.13;;;0.98;;
47922;SDS011;33688;44.354;9.228;2023-04-10T11:36:31;2.22;;;1.50;;
47922;SDS011;33688;44.354;9.228;2023-04-10T11:39:02;1.33;;;0.90;;
47922;SDS011;33688;44.354;9.228;2023-04-10T11:41:36;1.63;;;1.10;;
47922;SDS011;33688;44.354;9.228;2023-04-10T11:44:04;1.90;;;1.10;;
47922;SDS011;33688;44.354;9.228;2023-04-10T11:46:34;0.98;;;0.70;;
47922;SDS011;33688;44.354;9.228;2023-04-10T11:49:04;1.80;;;1.27;;
47922;SDS011;33688;44.354;9.228;2023-04-10T11:51:30;3.17;;;1.17;;
47922;SDS011;33688;44.354;9.228;2023-04-10T11:54:15;1.38;;;1.23;;
47922;SDS011;33688;44.354;9.228;2023-04-10T11:56:43;2.22;;;1.20;;
47922;SDS011;33688;44.354;9.228;2023-04-10T11:59:09;4.68;;;1.00;;
47922;SDS011;33688;44.354;9.228;2023-04-10T12:01:38;1.00;;;0.88;;
47922;SDS011;33688;44.354;9.228;2023-04-10T12:06:43;2.33;;;1.35;;
47922;SDS011;33688;44.354;9.228;2023-04-10T12:09:20;1.60;;;1.33;;
47922;SDS011;33688;44.354;9.228;2023-04-10T12:11:58;2.53;;;1.17;;
47922;SDS011;33688;44.354;9.228;2023-04-10T12:16:58;2.10;;;1.40;;
47922;SDS011;33688;44.354;9.228;2023-04-10T12:19:25;1.73;;;1.30;;
47922;SDS011;33688;44.354;9.228;2023-04-10T12:21:50;1.92;;;1.30;;
47922;SDS011;33688;44.354;9.228;2023-04-10T12:27:23;1.80;;;1.33;;
47922;SDS011;33688;44.354;9.228;2023-04-10T12:29:51;1.95;;;1.25;;
47922;SDS011;33688;44.354;9.228;2023-04-10T12:32:22;2.33;;;1.20;;
47922;SDS011;33688;44.354;9.228;2023-04-10T12:34:49;1.92;;;1.17;;
47922;SDS011;33688;44.354;9.228;2023-04-10T12:37:15;3.28;;;1.08;;
47922;SDS011;33688;44.354;9.228;2023-04-10T12:39:42;3.00;;;1.52;;
47922;SDS011;33688;44.354;9.228;2023-04-10T12:42:14;1.40;;;1.27;;
47922;SDS011;33688;44.354;9.228;2023-04-10T12:44:54;1.63;;;1.40;;
47922;SDS011;33688;44.354;9.228;2023-04-10T12:47:22;3.03;;;1.23;;
47922;SDS011;33688;44.354;9.228;2023-04-10T12:52:29;2.30;;;1.33;;
47922;SDS011;33688;44.354;9.228;2023-04-10T12:55:06;2.22;;;1.55;;
47922;SDS011;33688;44.354;9.228;2023-04-10T12:57:33;3.35;;;1.25;;
47922;SDS011;33688;44.354;9.228;2023-04-10T12:59:58;1.83;;;1.08;;
47922;SDS011;33688;44.354;9.228;2023-04-10T13:02:25;1.10;;;1.00;;
47922;SDS011;33688;44.354;9.228;2023-04-10T13:04:51;2.47;;;1.40;;
47922;SDS011;33688;44.354;9.228;2023-04-10T13:07:17;2.95;;;1.50;;
47922;SDS011;33688;44.354;9.228;2023-04-10T13:09:42;1.80;;;1.10;;
47922;SDS011;33688;44.354;9.228;2023-04-10T13:12:08;3.83;;;1.30;;
47922;SDS011;33688;44.354;9.228;2023-04-10T13:14:33;2.63;;;1.33;;
47922;SDS011;33688;44.354;9.228;2023-04-10T13:16:59;2.72;;;1.38;;
47922;SDS011;33688;44.354;9.228;2023-04-10T13:19:25;1.25;;;0.93;;
47922;SDS011;33688;44.354;9.228;2023-04-10T13:21:51;2.65;;;1.35;;
47922;SDS011;33688;44.354;9.228;2023-04-10T13:24:16;2.05;;;0.93;;
47922;SDS011;33688;44.354;9.228;2023-04-10T13:26:42;2.85;;;1.27;;
47922;SDS011;33688;44.354;9.228;2023-04-10T13:29:08;2.13;;;1.25;;
47922;SDS011;33688;44.354;9.228;2023-04-10T13:31:34;0.98;;;0.88;;
47922;SDS011;33688;44.354;9.228;2023-04-10T13:34:00;2.95;;;1.42;;
47922;SDS011;33688;44.354;9.228;2023-04-10T13:36:25;1.90;;;1.23;;
47922;SDS011;33688;44.354;9.228;2023-04-10T13:38:51;1.85;;;1.10;;
47922;SDS011;33688;44.354;9.228;2023-04-10T13:41:17;1.85;;;1.23;;
47922;SDS011;33688;44.354;9.228;2023-04-10T13:43:43;2.35;;;1.20;;
47922;SDS011;33688;44.354;9.228;2023-04-10T13:46:08;1.95;;;1.00;;
47922;SDS011;33688;44.354;9.228;2023-04-10T13:48:34;1.17;;;1.00;;
47922;SDS011;33688;44.354;9.228;2023-04-10T13:51:05;1.65;;;1.10;;
47922;SDS011;33688;44.354;9.228;2023-04-10T13:53:31;1.05;;;0.95;;
47922;SDS011;33688;44.354;9.228;2023-04-10T13:55:57;1.58;;;1.17;;
47922;SDS011;33688;44.354;9.228;2023-04-10T13:58:23;1.30;;;0.90;;
47922;SDS011;33688;44.354;9.228;2023-04-10T14:00:50;1.38;;;1.13;;
47922;SDS011;33688;44.354;9.228;2023-04-10T14:03:17;4.20;;;1.10;;
47922;SDS011;33688;44.354;9.228;2023-04-10T14:05:43;1.55;;;1.10;;
47922;SDS011;33688;44.354;9.228;2023-04-10T14:08:09;1.70;;;1.10;;
47922;SDS011;33688;44.354;9.228;2023-04-10T14:10:38;1.13;;;1.02;;
47922;SDS011;33688;44.354;9.228;2023-04-10T14:13:04;1.40;;;1.20;;
47922;SDS011;33688;44.354;9.228;2023-04-10T14:15:33;3.85;;;1.10;;
47922;SDS011;33688;44.354;9.228;2023-04-10T14:17:59;1.52;;;1.42;;
47922;SDS011;33688;44.354;9.228;2023-04-10T14:20:24;1.33;;;1.08;;
47922;SDS011;33688;44.354;9.228;2023-04-10T14:22:50;1.25;;;1.15;;
47922;SDS011;33688;44.354;9.228;2023-04-10T14:25:16;1.58;;;1.05;;
47922;SDS011;33688;44.354;9.228;2023-04-10T14:27:43;1.27;;;0.90;;
47922;SDS011;33688;44.354;9.228;2023-04-10T14:30:09;1.27;;;0.88;;
47922;SDS011;33688;44.354;9.228;2023-04-10T14:32:34;2.70;;;1.30;;
47922;SDS011;33688;44.354;9.228;2023-04-10T14:35:00;1.05;;;1.00;;
47922;SDS011;33688;44.354;9.228;2023-04-10T14:37:26;1.63;;;0.80;;
47922;SDS011;33688;44.354;9.228;2023-04-10T14:39:51;0.70;;;0.70;;
47922;SDS011;33688;44.354;9.228;2023-04-10T14:42:17;2.15;;;1.38;;
47922;SDS011;33688;44.354;9.228;2023-04-10T14:44:43;2.25;;;0.80;;
47922;SDS011;33688;44.354;9.228;2023-04-10T14:47:09;1.58;;;1.05;;
47922;SDS011;33688;44.354;9.228;2023-04-10T14:49:35;1.00;;;0.90;;
47922;SDS011;33688;44.354;9.228;2023-04-10T14:52:00;1.75;;;1.10;;
47922;SDS011;33688;44.354;9.228;2023-04-10T14:54:27;1.75;;;1.08;;
47922;SDS011;33688;44.354;9.228;2023-04-10T14:56:53;0.82;;;0.73;;
47922;SDS011;33688;44.354;9.228;2023-04-10T14:59:18;1.25;;;1.00;;
47922;SDS011;33688;44.354;9.228;2023-04-10T15:01:44;1.00;;;0.90;;
47922;SDS011;33688;44.354;9.228;2023-04-10T15:04:10;1.10;;;1.00;;
47922;SDS011;33688;44.354;9.228;2023-04-10T15:06:36;0.82;;;0.82;;
47922;SDS011;33688;44.354;9.228;2023-04-10T15:09:02;2.00;;;1.02;;
47922;SDS011;33688;44.354;9.228;2023-04-10T15:11:27;2.55;;;1.00;;
47922;SDS011;33688;44.354;9.228;2023-04-10T15:13:53;1.40;;;0.98;;
47922;SDS011;33688;44.354;9.228;2023-04-10T15:16:19;1.67;;;1.13;;
47922;SDS011;33688;44.354;9.228;2023-04-10T15:18:47;1.23;;;0.88;;
47922;SDS011;33688;44.354;9.228;2023-04-10T15:21:14;1.20;;;1.10;;
47922;SDS011;33688;44.354;9.228;2023-04-10T15:23:40;1.02;;;0.93;;
47922;SDS011;33688;44.354;9.228;2023-04-10T15:26:12;1.33;;;1.15;;
47922;SDS011;33688;44.354;9.228;2023-04-10T15:31:05;1.30;;;1.20;;
47922;SDS011;33688;44.354;9.228;2023-04-10T15:33:30;1.05;;;0.80;;
47922;SDS011;33688;44.354;9.228;2023-04-10T15:35:56;1.40;;;1.15;;
47922;SDS011;33688;44.354;9.228;2023-04-10T15:38:22;1.33;;;0.90;;
47922;SDS011;33688;44.354;9.228;2023-04-10T15:40:50;1.20;;;0.98;;
47922;SDS011;33688;44.354;9.228;2023-04-10T15:43:16;0.80;;;0.80;;
47922;SDS011;33688;44.354;9.228;2023-04-10T15:45:42;1.25;;;0.98;;
47922;SDS011;33688;44.354;9.228;2023-04-10T15:48:08;0.95;;;0.80;;
47922;SDS011;33688;44.354;9.228;2023-04-10T15:50:38;0.98;;;0.88;;
47922;SDS011;33688;44.354;9.228;2023-04-10T15:53:07;0.73;;;0.73;;
47922;SDS011;33688;44.354;9.228;2023-04-10T15:55:33;0.85;;;0.85;;
47922;SDS011;33688;44.354;9.228;2023-04-10T15:58:03;0.88;;;0.75;;
47922;SDS011;33688;44.354;9.228;2023-04-10T16:00:28;2.15;;;1.02;;
47922;SDS011;33688;44.354;9.228;2023-04-10T16:02:54;0.80;;;0.80;;
47922;SDS011;33688;44.354;9.228;2023-04-10T16:05:20;0.75;;;0.73;;